createdAt,value
2023-01-08T00:00:22.555Z,8.73
2023-01-08T00:01:22.471Z,8.72
2023-01-08T00:02:22.445Z,8.69
2023-01-08T00:03:22.533Z,8.66
2023-01-08T00:04:22.439Z,8.65
2023-01-08T00:05:22.399Z,8.60
2023-01-08T00:06:22.415Z,8.60
2023-01-08T00:07:22.368Z,8.55
2023-01-08T00:08:22.368Z,8.55
2023-01-08T00:09:22.375Z,8.51
2023-01-08T00:10:22.346Z,8.50
2023-01-08T00:11:22.333Z,8.48
2023-01-08T00:12:22.324Z,8.47
2023-01-08T00:13:22.302Z,8.44
2023-01-08T00:14:22.310Z,8.40
2023-01-08T00:15:22.271Z,8.40
2023-01-08T00:16:22.324Z,8.37
2023-01-08T00:17:22.240Z,8.40
2023-01-08T00:18:22.235Z,8.37
2023-01-08T00:19:22.227Z,8.37
2023-01-08T00:20:22.197Z,8.35
2023-01-08T00:21:22.198Z,8.32
2023-01-08T00:22:22.180Z,8.32
2023-01-08T00:23:22.160Z,8.26
2023-01-08T00:24:22.147Z,8.26
2023-01-08T00:25:22.150Z,8.25
2023-01-08T00:26:22.163Z,8.25
2023-01-08T00:27:22.115Z,8.22
2023-01-08T00:28:22.117Z,8.22
2023-01-08T00:29:22.100Z,8.22
2023-01-08T00:30:22.092Z,8.20
2023-01-08T00:31:22.120Z,8.20
2023-01-08T00:32:22.099Z,8.18
2023-01-08T00:33:22.028Z,8.18
2023-01-08T00:34:22.028Z,8.15
2023-01-08T00:35:22.021Z,8.15
2023-01-08T00:36:21.997Z,8.12
2023-01-08T00:37:21.981Z,8.11
2023-01-08T00:38:21.991Z,8.08
2023-01-08T00:39:21.967Z,8.10
2023-01-08T00:40:21.952Z,8.08
2023-01-08T00:41:21.938Z,8.07
2023-01-08T00:42:21.930Z,8.07
2023-01-08T00:43:21.924Z,8.04
2023-01-08T00:44:21.899Z,8.04
2023-01-08T00:45:21.880Z,8.07
2023-01-08T00:46:21.928Z,8.04
2023-01-08T00:47:21.849Z,8.04
2023-01-08T00:48:21.830Z,8.03
2023-01-08T00:49:21.837Z,8.03
2023-01-08T00:50:21.807Z,8.02
2023-01-08T00:51:21.789Z,7.99
2023-01-08T00:52:28.828Z,7.97
2023-01-08T00:53:21.784Z,7.96
2023-01-08T00:54:21.767Z,7.96
2023-01-08T00:55:21.766Z,7.96
2023-01-08T00:56:21.746Z,7.94
2023-01-08T00:57:21.733Z,7.94
2023-01-08T00:58:21.718Z,7.93
2023-01-08T00:59:21.692Z,7.93
2023-01-08T01:00:21.684Z,7.90
2023-01-08T01:01:21.867Z,7.89
2023-01-08T01:02:21.695Z,7.87
2023-01-08T01:03:21.644Z,7.84
2023-01-08T01:04:21.683Z,7.84
2023-01-08T01:05:21.649Z,7.81
2023-01-08T01:06:21.636Z,7.79
2023-01-08T01:07:21.607Z,7.78
2023-01-08T01:08:21.599Z,7.75
2023-01-08T01:09:21.566Z,7.75
2023-01-08T01:10:21.608Z,7.77
2023-01-08T01:11:21.531Z,7.78
2023-01-08T01:12:21.532Z,7.78
2023-01-08T01:13:21.537Z,7.77
2023-01-08T01:14:21.510Z,7.75
2023-01-08T01:15:21.525Z,7.72
2023-01-08T01:16:21.529Z,7.72
2023-01-08T01:17:21.461Z,7.71
2023-01-08T01:18:21.476Z,7.71
2023-01-08T01:19:21.480Z,7.67
2023-01-08T01:20:21.436Z,7.67
2023-01-08T01:21:21.406Z,7.67
2023-01-08T01:22:21.417Z,7.63
2023-01-08T01:23:21.387Z,7.62
2023-01-08T01:24:21.396Z,7.63
2023-01-08T01:25:21.365Z,7.62
2023-01-08T01:26:21.360Z,7.60
2023-01-08T01:27:21.338Z,7.59
2023-01-08T01:28:21.328Z,7.59
2023-01-08T01:29:21.306Z,7.59
2023-01-08T01:30:21.315Z,7.56
2023-01-08T01:31:21.416Z,7.55
2023-01-08T01:32:21.266Z,7.53
2023-01-08T01:33:21.266Z,7.53
2023-01-08T01:34:21.276Z,7.52
2023-01-08T01:35:21.257Z,7.52
2023-01-08T01:36:21.269Z,7.50
2023-01-08T01:37:21.260Z,7.49
2023-01-08T01:38:21.224Z,7.47
2023-01-08T01:39:21.219Z,7.47
2023-01-08T01:40:21.178Z,7.44
2023-01-08T01:41:21.154Z,7.44
2023-01-08T01:42:21.154Z,7.41
2023-01-08T01:43:21.115Z,7.40
2023-01-08T01:44:21.131Z,7.40
2023-01-08T01:45:21.177Z,7.40
2023-01-08T01:46:21.214Z,7.37
2023-01-08T01:47:21.082Z,7.37
2023-01-08T01:48:21.078Z,7.37
2023-01-08T01:49:21.045Z,7.37
2023-01-08T01:50:21.065Z,7.35
2023-01-08T01:51:21.019Z,7.34
2023-01-08T01:52:21.016Z,7.34
2023-01-08T01:53:20.998Z,7.32
2023-01-08T01:54:20.996Z,7.32
2023-01-08T01:55:21.014Z,7.32
2023-01-08T01:56:20.974Z,7.31
2023-01-08T01:57:20.958Z,7.31
2023-01-08T01:58:20.940Z,7.31
2023-01-08T01:59:20.905Z,7.27
2023-01-08T02:00:20.929Z,7.27
2023-01-08T02:01:21.024Z,7.27
2023-01-08T02:02:22.970Z,7.24
2023-01-08T02:03:20.881Z,7.24
2023-01-08T02:04:20.897Z,7.22
2023-01-08T02:05:20.855Z,7.19
2023-01-08T02:06:20.825Z,7.19
2023-01-08T02:07:20.826Z,7.17
2023-01-08T02:08:20.813Z,7.15
2023-01-08T02:09:20.797Z,7.15
2023-01-08T02:10:20.800Z,7.15
2023-01-08T02:11:20.774Z,7.12
2023-01-08T02:12:20.746Z,7.08
2023-01-08T02:13:20.756Z,7.05
2023-01-08T02:14:20.721Z,7.02
2023-01-08T02:15:20.734Z,7.01
2023-01-08T02:16:20.759Z,7.02
2023-01-08T02:17:20.694Z,6.99
2023-01-08T02:18:20.702Z,6.99
2023-01-08T02:19:20.687Z,6.98
2023-01-08T02:20:20.652Z,6.95
2023-01-08T02:21:20.644Z,6.94
2023-01-08T02:22:20.614Z,6.90
2023-01-08T02:23:20.644Z,6.89
2023-01-08T02:24:20.603Z,6.84
2023-01-08T02:25:20.586Z,6.83
2023-01-08T02:26:20.572Z,6.81
2023-01-08T02:27:20.567Z,6.77
2023-01-08T02:28:20.545Z,6.79
2023-01-08T02:29:20.554Z,6.73
2023-01-08T02:30:20.530Z,6.68
2023-01-08T02:31:20.568Z,6.65
2023-01-08T02:32:20.475Z,6.61
2023-01-08T02:33:20.501Z,6.58
2023-01-08T02:34:20.485Z,6.54
2023-01-08T02:35:20.463Z,6.50
2023-01-08T02:36:20.425Z,6.48
2023-01-08T02:37:20.423Z,6.48
2023-01-08T02:38:20.406Z,6.47
2023-01-08T02:39:20.460Z,6.47
2023-01-08T02:40:20.385Z,6.46
2023-01-08T02:41:20.395Z,6.41
2023-01-08T02:42:20.363Z,6.40
2023-01-08T02:43:20.359Z,6.40
2023-01-08T02:44:20.338Z,6.38
2023-01-08T02:45:20.350Z,6.35
2023-01-08T02:46:20.357Z,6.30
2023-01-08T02:47:20.295Z,6.30
2023-01-08T02:48:20.272Z,6.32
2023-01-08T02:49:20.264Z,6.30
2023-01-08T02:50:20.264Z,6.29
2023-01-08T02:51:20.242Z,6.25
2023-01-08T02:52:20.215Z,6.21
2023-01-08T02:53:20.224Z,6.21
2023-01-08T02:54:20.196Z,6.25
2023-01-08T02:55:20.206Z,6.22
2023-01-08T02:56:20.214Z,6.25
2023-01-08T02:57:20.177Z,6.22
2023-01-08T02:58:20.152Z,6.21
2023-01-08T02:59:20.153Z,6.22
2023-01-08T03:00:20.151Z,6.19
2023-01-08T03:01:20.243Z,6.19
2023-01-08T03:02:20.273Z,6.21
2023-01-08T03:03:20.095Z,6.18
2023-01-08T03:04:20.128Z,6.14
2023-01-08T03:05:20.100Z,6.14
2023-01-08T03:06:20.050Z,6.11
2023-01-08T03:07:20.048Z,6.07
2023-01-08T03:08:20.046Z,6.04
2023-01-08T03:09:20.031Z,6.04
2023-01-08T03:10:19.996Z,6.03
2023-01-08T03:11:19.998Z,6.01
2023-01-08T03:12:19.991Z,6.03
2023-01-08T03:13:19.965Z,6.01
2023-01-08T03:14:19.945Z,6.00
2023-01-08T03:15:19.940Z,6.00
2023-01-08T03:16:19.929Z,5.96
2023-01-08T03:17:19.905Z,5.95
2023-01-08T03:18:19.894Z,5.96
2023-01-08T03:19:19.896Z,5.95
2023-01-08T03:20:19.866Z,5.95
2023-01-08T03:21:19.867Z,5.95
2023-01-08T03:22:19.847Z,5.95
2023-01-08T03:23:19.898Z,5.95
2023-01-08T03:24:19.831Z,5.95
2023-01-08T03:25:19.809Z,5.92
2023-01-08T03:26:19.801Z,5.92
2023-01-08T03:27:19.777Z,5.91
2023-01-08T03:28:19.749Z,5.91
2023-01-08T03:29:19.756Z,5.92
2023-01-08T03:30:19.725Z,5.92
2023-01-08T03:31:19.855Z,5.91
2023-01-08T03:32:19.708Z,5.91
2023-01-08T03:33:19.700Z,5.89
2023-01-08T03:34:19.714Z,5.88
2023-01-08T03:35:19.683Z,5.89
2023-01-08T03:36:19.673Z,5.88
2023-01-08T03:37:19.657Z,5.91
2023-01-08T03:38:19.627Z,5.91
2023-01-08T03:39:19.627Z,5.89
2023-01-08T03:40:19.628Z,5.91
2023-01-08T03:41:19.614Z,5.91
2023-01-08T03:42:19.582Z,5.89
2023-01-08T03:43:19.566Z,5.89
2023-01-08T03:44:19.567Z,5.89
2023-01-08T03:45:19.544Z,5.89
2023-01-08T03:46:19.546Z,5.89
2023-01-08T03:47:19.515Z,5.88
2023-01-08T03:48:19.497Z,5.86
2023-01-08T03:49:19.485Z,5.86
2023-01-08T03:50:26.496Z,5.86
2023-01-08T03:51:19.492Z,5.88
2023-01-08T03:52:19.460Z,5.86
2023-01-08T03:53:19.441Z,5.86
2023-01-08T03:54:19.434Z,5.86
2023-01-08T03:55:19.413Z,5.85
2023-01-08T03:56:19.405Z,5.85
2023-01-08T03:57:19.389Z,5.85
2023-01-08T03:58:19.371Z,5.83
2023-01-08T03:59:19.382Z,5.83
2023-01-08T04:00:19.359Z,5.83
2023-01-08T04:01:19.420Z,5.83
2023-01-08T04:02:19.472Z,5.85
2023-01-08T04:03:19.330Z,5.85
2023-01-08T04:04:19.335Z,5.83
2023-01-08T04:05:19.311Z,5.85
2023-01-08T04:06:19.272Z,5.85
2023-01-08T04:07:19.267Z,5.83
2023-01-08T04:08:19.244Z,5.85
2023-01-08T04:09:19.236Z,5.86
2023-01-08T04:10:19.216Z,5.86
2023-01-08T04:11:19.229Z,5.86
2023-01-08T04:12:19.170Z,5.88
2023-01-08T04:13:19.196Z,5.88
2023-01-08T04:14:19.167Z,5.91
2023-01-08T04:15:19.162Z,5.86
2023-01-08T04:16:19.193Z,5.86
2023-01-08T04:17:19.131Z,5.85
2023-01-08T04:18:19.132Z,5.86
2023-01-08T04:19:19.114Z,5.86
2023-01-08T04:20:19.082Z,5.85
2023-01-08T04:21:19.083Z,5.82
2023-01-08T04:22:19.070Z,5.82
2023-01-08T04:23:19.049Z,5.82
2023-01-08T04:24:19.031Z,5.85
2023-01-08T04:25:19.034Z,5.86
2023-01-08T04:26:19.002Z,5.88
2023-01-08T04:27:18.990Z,5.88
2023-01-08T04:28:18.987Z,5.88
2023-01-08T04:29:18.993Z,5.86
2023-01-08T04:30:18.968Z,5.88
2023-01-08T04:31:19.007Z,5.86
2023-01-08T04:32:18.930Z,5.86
2023-01-08T04:33:18.943Z,5.88
2023-01-08T04:34:18.924Z,5.89
2023-01-08T04:35:18.975Z,5.89
2023-01-08T04:36:18.877Z,5.91
2023-01-08T04:37:18.863Z,5.92
2023-01-08T04:38:18.853Z,5.93
2023-01-08T04:39:18.854Z,5.96
2023-01-08T04:40:18.852Z,5.96
2023-01-08T04:41:18.844Z,5.98
2023-01-08T04:42:18.802Z,5.98
2023-01-08T04:43:18.813Z,6.00
2023-01-08T04:44:18.773Z,5.98
2023-01-08T04:45:18.832Z,5.92
2023-01-08T04:46:18.831Z,5.91
2023-01-08T04:47:18.742Z,5.91
2023-01-08T04:48:18.724Z,5.86
2023-01-08T04:49:18.725Z,5.85
2023-01-08T04:50:18.725Z,5.82
2023-01-08T04:51:18.684Z,5.81
2023-01-08T04:52:18.683Z,5.77
2023-01-08T04:53:18.671Z,5.73
2023-01-08T04:54:18.637Z,5.70
2023-01-08T04:55:18.651Z,5.66
2023-01-08T04:56:18.608Z,5.64
2023-01-08T04:57:18.606Z,5.59
2023-01-08T04:58:18.598Z,5.57
2023-01-08T04:59:18.610Z,5.56
2023-01-08T05:00:18.577Z,5.56
2023-01-08T05:01:18.625Z,5.55
2023-01-08T05:02:18.792Z,5.55
2023-01-08T05:03:18.566Z,5.55
2023-01-08T05:04:18.534Z,5.50
2023-01-08T05:05:18.523Z,5.48
2023-01-08T05:06:18.487Z,5.45
2023-01-08T05:07:18.481Z,5.43
2023-01-08T05:08:18.477Z,5.40
2023-01-08T05:09:18.453Z,5.37
2023-01-08T05:10:18.444Z,5.34
2023-01-08T05:11:18.434Z,5.34
2023-01-08T05:12:18.406Z,5.32
2023-01-08T05:13:18.403Z,5.32
2023-01-08T05:14:18.388Z,5.32
2023-01-08T05:15:18.402Z,5.31
2023-01-08T05:16:18.422Z,5.31
2023-01-08T05:17:18.351Z,5.34
2023-01-08T05:18:18.330Z,5.34
2023-01-08T05:19:18.321Z,5.35
2023-01-08T05:20:19.150Z,5.37
2023-01-08T05:21:18.311Z,5.37
2023-01-08T05:22:18.277Z,5.40
2023-01-08T05:23:18.291Z,5.38
2023-01-08T05:24:18.244Z,5.41
2023-01-08T05:25:18.252Z,5.43
2023-01-08T05:26:18.239Z,5.43
2023-01-08T05:27:18.279Z,5.45
2023-01-08T05:28:18.205Z,5.46
2023-01-08T05:29:18.203Z,5.45
2023-01-08T05:30:18.174Z,5.45
2023-01-08T05:31:18.302Z,5.46
2023-01-08T05:32:18.167Z,5.46
2023-01-08T05:33:18.152Z,5.48
2023-01-08T05:34:18.123Z,5.48
2023-01-08T05:35:18.123Z,5.48
2023-01-08T05:36:18.094Z,5.48
2023-01-08T05:37:18.150Z,5.49
2023-01-08T05:38:18.068Z,5.49
2023-01-08T05:39:18.094Z,5.49
2023-01-08T05:40:18.044Z,5.49
2023-01-08T05:41:18.066Z,5.46
2023-01-08T05:42:18.021Z,5.46
2023-01-08T05:43:18.042Z,5.43
2023-01-08T05:44:18.000Z,5.38
2023-01-08T05:45:18.000Z,5.38
2023-01-08T05:46:18.020Z,5.38
2023-01-08T05:47:17.964Z,5.35
2023-01-08T05:48:17.949Z,5.38
2023-01-08T05:49:17.953Z,5.38
2023-01-08T05:50:17.921Z,5.43
2023-01-08T05:51:17.936Z,5.43
2023-01-08T05:52:17.892Z,5.43
2023-01-08T05:53:17.882Z,5.43
2023-01-08T05:54:17.866Z,5.45
2023-01-08T05:55:17.865Z,5.45
2023-01-08T05:56:17.847Z,5.45
2023-01-08T05:57:17.847Z,5.46
2023-01-08T05:58:17.814Z,5.46
2023-01-08T05:59:17.823Z,5.45
2023-01-08T06:00:17.806Z,5.48
2023-01-08T06:01:17.825Z,5.49
2023-01-08T06:02:17.788Z,5.49
2023-01-08T06:03:17.785Z,5.53
2023-01-08T06:04:17.803Z,5.56
2023-01-08T06:05:17.751Z,5.59
2023-01-08T06:06:17.719Z,5.60
2023-01-08T06:07:17.731Z,5.63
2023-01-08T06:08:17.684Z,5.64
2023-01-08T06:09:17.695Z,5.66
2023-01-08T06:10:17.670Z,5.68
2023-01-08T06:11:17.651Z,5.70
2023-01-08T06:12:17.631Z,5.71
2023-01-08T06:13:17.644Z,5.71
2023-01-08T06:14:17.618Z,5.73
2023-01-08T06:15:17.619Z,5.73
2023-01-08T06:16:17.731Z,5.75
2023-01-08T06:17:17.575Z,5.75
2023-01-08T06:18:17.590Z,5.75
2023-01-08T06:19:17.550Z,5.75
2023-01-08T06:20:17.545Z,5.78
2023-01-08T06:21:17.518Z,5.82
2023-01-08T06:22:17.517Z,5.81
2023-01-08T06:23:17.519Z,5.83
2023-01-08T06:24:17.506Z,5.83
2023-01-08T06:25:17.462Z,5.85
2023-01-08T06:26:17.463Z,5.86
2023-01-08T06:27:17.433Z,5.86
2023-01-08T06:28:17.437Z,5.86
2023-01-08T06:29:17.453Z,5.89
2023-01-08T06:30:17.419Z,5.89
2023-01-08T06:31:17.415Z,5.89
2023-01-08T06:32:17.401Z,5.92
2023-01-08T06:33:19.087Z,5.93
2023-01-08T06:34:17.363Z,5.95
2023-01-08T06:35:17.350Z,6.00
2023-01-08T06:36:17.343Z,6.00
2023-01-08T06:37:17.322Z,6.03
2023-01-08T06:38:17.303Z,6.04
2023-01-08T06:39:17.284Z,6.06
2023-01-08T06:40:17.283Z,6.09
2023-01-08T06:41:17.314Z,6.10
2023-01-08T06:42:17.243Z,6.10
2023-01-08T06:43:17.298Z,6.10
2023-01-08T06:44:17.214Z,6.11
2023-01-08T06:45:17.207Z,6.13
2023-01-08T06:46:17.249Z,6.16
2023-01-08T06:47:17.184Z,6.18
2023-01-08T06:48:17.192Z,6.19
2023-01-08T06:49:17.174Z,6.19
2023-01-08T06:50:17.163Z,6.21
2023-01-08T06:51:17.176Z,6.22
2023-01-08T06:52:17.147Z,6.22
2023-01-08T06:53:17.124Z,6.22
2023-01-08T06:54:17.123Z,6.22
2023-01-08T06:55:17.091Z,6.25
2023-01-08T06:56:17.098Z,6.26
2023-01-08T06:57:17.042Z,6.32
2023-01-08T06:58:17.056Z,6.33
2023-01-08T06:59:17.029Z,6.35
2023-01-08T07:00:17.033Z,6.38
2023-01-08T07:01:17.171Z,6.40
2023-01-08T07:02:17.137Z,6.40
2023-01-08T07:03:17.039Z,6.44
2023-01-08T07:04:16.965Z,6.46
2023-01-08T07:05:17.000Z,6.47
2023-01-08T07:06:16.949Z,6.50
2023-01-08T07:07:16.934Z,6.51
2023-01-08T07:08:16.916Z,6.54
2023-01-08T07:09:16.927Z,6.56
2023-01-08T07:10:19.693Z,6.61
2023-01-08T07:11:16.941Z,6.62
2023-01-08T07:12:16.890Z,6.66
2023-01-08T07:13:16.863Z,6.65
2023-01-08T07:14:16.865Z,6.69
2023-01-08T07:15:16.823Z,6.69
2023-01-08T07:16:16.925Z,6.71
2023-01-08T07:17:16.847Z,6.72
2023-01-08T07:18:16.892Z,6.76
2023-01-08T07:19:16.967Z,6.76
2023-01-08T07:20:16.768Z,6.77
2023-01-08T07:21:16.752Z,6.79
2023-01-08T07:22:16.726Z,6.80
2023-01-08T07:23:16.710Z,6.80
2023-01-08T07:24:16.706Z,6.83
2023-01-08T07:25:16.724Z,6.83
2023-01-08T07:26:16.702Z,6.87
2023-01-08T07:27:16.674Z,6.87
2023-01-08T07:28:16.719Z,6.89
2023-01-08T07:29:16.638Z,6.90
2023-01-08T07:30:28.966Z,6.95
2023-01-08T07:31:17.701Z,6.94
2023-01-08T07:32:16.627Z,6.98
2023-01-08T07:33:16.573Z,6.99
2023-01-08T07:34:16.562Z,7.01
2023-01-08T07:35:16.583Z,7.04
2023-01-08T07:36:16.555Z,7.05
2023-01-08T07:37:16.547Z,7.07
2023-01-08T07:38:16.539Z,7.09
2023-01-08T07:39:16.507Z,7.12
2023-01-08T07:40:16.531Z,7.13
2023-01-08T07:41:16.479Z,7.17
2023-01-08T07:42:16.494Z,7.20
2023-01-08T07:43:16.483Z,7.22
2023-01-08T07:44:16.468Z,7.24
2023-01-08T07:45:16.446Z,7.24
2023-01-08T07:46:16.510Z,7.26
2023-01-08T07:47:16.422Z,7.27
2023-01-08T07:48:16.436Z,7.31
2023-01-08T07:49:16.426Z,7.32
2023-01-08T07:50:16.359Z,7.34
2023-01-08T07:51:16.354Z,7.35
2023-01-08T07:52:16.354Z,7.35
2023-01-08T07:53:16.340Z,7.40
2023-01-08T07:54:16.327Z,7.41
2023-01-08T07:55:16.368Z,7.42
2023-01-08T07:56:16.299Z,7.45
2023-01-08T07:57:16.304Z,7.45
2023-01-08T07:58:16.270Z,7.49
2023-01-08T07:59:16.276Z,7.49
2023-01-08T08:00:16.301Z,7.50
2023-01-08T08:01:16.274Z,7.52
2023-01-08T08:02:16.378Z,7.53
2023-01-08T08:03:16.301Z,7.55
2023-01-08T08:04:16.184Z,7.55
2023-01-08T08:05:16.168Z,7.56
2023-01-08T08:06:16.193Z,7.56
2023-01-08T08:07:16.164Z,7.59
2023-01-08T08:08:16.144Z,7.63
2023-01-08T08:09:16.125Z,7.62
2023-01-08T08:10:16.131Z,7.66
2023-01-08T08:11:16.113Z,7.67
2023-01-08T08:12:16.094Z,7.67
2023-01-08T08:13:16.080Z,7.69
2023-01-08T08:14:16.054Z,7.71
2023-01-08T08:15:16.049Z,7.72
2023-01-08T08:16:16.098Z,7.74
2023-01-08T08:17:16.019Z,7.72
2023-01-08T08:18:16.085Z,7.74
2023-01-08T08:19:16.000Z,7.72
2023-01-08T08:20:16.018Z,7.74
2023-01-08T08:21:15.972Z,7.72
2023-01-08T08:22:15.965Z,7.71
2023-01-08T08:23:15.981Z,7.72
2023-01-08T08:24:15.990Z,7.69
2023-01-08T08:25:15.907Z,7.69
2023-01-08T08:26:15.911Z,7.71
2023-01-08T08:27:15.889Z,7.67
2023-01-08T08:28:15.875Z,7.67
2023-01-08T08:29:15.863Z,7.69
2023-01-08T08:30:15.844Z,7.67
2023-01-08T08:31:15.858Z,7.69
2023-01-08T08:32:15.825Z,7.67
2023-01-08T08:33:15.790Z,7.67
2023-01-08T08:34:15.794Z,7.67
2023-01-08T08:35:15.806Z,7.67
2023-01-08T08:36:15.766Z,7.66
2023-01-08T08:37:15.758Z,7.66
2023-01-08T08:38:15.736Z,7.69
2023-01-08T08:39:15.731Z,7.69
2023-01-08T08:40:15.714Z,7.69
2023-01-08T08:41:15.741Z,7.69
2023-01-08T08:42:15.703Z,7.74
2023-01-08T08:43:15.680Z,7.75
2023-01-08T08:44:15.694Z,7.75
2023-01-08T08:45:15.636Z,7.78
2023-01-08T08:46:15.702Z,7.77
2023-01-08T08:47:15.614Z,7.77
2023-01-08T08:48:15.615Z,7.77
2023-01-08T08:49:15.586Z,7.75
2023-01-08T08:50:15.587Z,7.78
2023-01-08T08:51:15.566Z,7.78
2023-01-08T08:52:15.607Z,7.79
2023-01-08T08:53:15.555Z,7.85
2023-01-08T08:54:15.546Z,7.87
2023-01-08T08:55:15.507Z,7.90
2023-01-08T08:56:15.509Z,7.90
2023-01-08T08:57:15.513Z,7.92
2023-01-08T08:58:15.493Z,7.97
2023-01-08T08:59:15.487Z,8.00
2023-01-08T09:00:15.473Z,8.04
2023-01-08T09:01:15.622Z,8.12
2023-01-08T09:02:15.736Z,8.15
2023-01-08T09:03:15.513Z,8.21
2023-01-08T09:04:15.400Z,8.21
2023-01-08T09:05:15.374Z,8.25
2023-01-08T09:06:15.386Z,8.25
2023-01-08T09:07:15.355Z,8.25
2023-01-08T09:08:15.355Z,8.25
2023-01-08T09:09:15.349Z,8.26
2023-01-08T09:10:15.366Z,8.22
2023-01-08T09:11:15.341Z,8.22
2023-01-08T09:12:15.328Z,8.22
2023-01-08T09:13:15.294Z,8.22
2023-01-08T09:14:15.285Z,8.25
2023-01-08T09:15:15.248Z,8.28
2023-01-08T09:16:15.314Z,8.30
2023-01-08T09:17:15.218Z,8.35
2023-01-08T09:18:16.154Z,8.35
2023-01-08T09:19:15.226Z,8.35
2023-01-08T09:20:15.194Z,8.39
2023-01-08T09:21:15.192Z,8.40
2023-01-08T09:22:15.188Z,8.42
2023-01-08T09:23:15.140Z,8.44
2023-01-08T09:24:15.168Z,8.45
2023-01-08T09:25:15.176Z,8.47
2023-01-08T09:26:15.246Z,8.47
2023-01-08T09:27:15.094Z,8.48
2023-01-08T09:28:15.091Z,8.50
2023-01-08T09:29:15.077Z,8.54
2023-01-08T09:30:15.073Z,8.54
2023-01-08T09:31:15.116Z,8.54
2023-01-08T09:32:15.037Z,8.54
2023-01-08T09:33:15.070Z,8.53
2023-01-08T09:34:15.017Z,8.51
2023-01-08T09:35:14.991Z,8.51
2023-01-08T09:36:14.997Z,8.51
2023-01-08T09:37:14.966Z,8.53
2023-01-08T09:38:14.957Z,8.51
2023-01-08T09:39:14.957Z,8.50
2023-01-08T09:40:14.996Z,8.48
2023-01-08T09:41:14.916Z,8.50
2023-01-08T09:42:14.926Z,8.48
2023-01-08T09:43:14.899Z,8.50
2023-01-08T09:44:14.885Z,8.51
2023-01-08T09:45:14.882Z,8.53
2023-01-08T09:46:14.929Z,8.53
2023-01-08T09:47:14.828Z,8.53
2023-01-08T09:48:14.857Z,8.53
2023-01-08T09:49:14.846Z,8.51
2023-01-08T09:50:21.860Z,8.51
2023-01-08T09:51:14.783Z,8.53
2023-01-08T09:52:14.781Z,8.50
2023-01-08T09:53:14.770Z,8.53
2023-01-08T09:54:14.773Z,8.55
2023-01-08T09:55:14.726Z,8.57
2023-01-08T09:56:14.788Z,8.57
2023-01-08T09:57:14.691Z,8.62
2023-01-08T09:58:14.711Z,8.62
2023-01-08T09:59:14.697Z,8.55
2023-01-08T10:00:14.702Z,8.51
2023-01-08T10:01:14.785Z,8.51
2023-01-08T10:02:14.791Z,8.50
2023-01-08T10:03:14.632Z,8.48
2023-01-08T10:04:14.634Z,8.48
2023-01-08T10:05:14.702Z,8.48
2023-01-08T10:06:14.613Z,8.47
2023-01-08T10:07:14.623Z,8.48
2023-01-08T10:08:14.571Z,8.47
2023-01-08T10:09:14.568Z,8.48
2023-01-08T10:10:14.693Z,8.48
2023-01-08T10:11:14.550Z,8.48
2023-01-08T10:12:14.563Z,8.47
2023-01-08T10:13:14.491Z,8.47
2023-01-08T10:14:14.503Z,8.50
2023-01-08T10:15:14.551Z,8.51
2023-01-08T10:16:14.483Z,8.54
2023-01-08T10:17:14.430Z,8.55
2023-01-08T10:18:14.465Z,8.58
2023-01-08T10:19:14.413Z,8.65
2023-01-08T10:20:14.411Z,8.66
2023-01-08T10:21:14.442Z,8.69
2023-01-08T10:22:14.381Z,8.71
2023-01-08T10:23:14.381Z,8.72
2023-01-08T10:24:14.364Z,8.72
2023-01-08T10:25:14.352Z,8.76
2023-01-08T10:26:14.344Z,8.78
2023-01-08T10:27:14.299Z,8.81
2023-01-08T10:28:14.331Z,8.79
2023-01-08T10:29:14.281Z,8.78
2023-01-08T10:30:14.304Z,8.76
2023-01-08T10:31:14.352Z,8.75
2023-01-08T10:32:14.241Z,8.73
2023-01-08T10:33:14.246Z,8.71
2023-01-08T10:34:14.222Z,8.68
2023-01-08T10:35:14.205Z,8.71
2023-01-08T10:36:14.213Z,8.69
2023-01-08T10:37:14.232Z,8.68
2023-01-08T10:38:14.159Z,8.65
2023-01-08T10:39:14.153Z,8.62
2023-01-08T10:40:14.139Z,8.58
2023-01-08T10:41:14.139Z,8.55
2023-01-08T10:42:14.104Z,8.51
2023-01-08T10:43:14.134Z,8.48
2023-01-08T10:44:14.091Z,8.47
2023-01-08T10:45:14.100Z,8.44
2023-01-08T10:46:14.137Z,8.42
2023-01-08T10:47:14.073Z,8.40
2023-01-08T10:48:14.034Z,8.42
2023-01-08T10:49:14.034Z,8.39
2023-01-08T10:50:14.017Z,8.37
2023-01-08T10:51:14.051Z,8.36
2023-01-08T10:52:13.978Z,8.35
2023-01-08T10:53:13.982Z,8.33
2023-01-08T10:54:13.941Z,8.30
2023-01-08T10:55:13.958Z,8.30
2023-01-08T10:56:13.935Z,8.26
2023-01-08T10:57:13.971Z,8.26
2023-01-08T10:58:13.903Z,8.29
2023-01-08T10:59:13.947Z,8.26
2023-01-08T11:00:13.899Z,8.29
2023-01-08T11:01:14.015Z,8.29
2023-01-08T11:02:13.924Z,8.28
2023-01-08T11:03:13.865Z,8.26
2023-01-08T11:04:13.830Z,8.30
2023-01-08T11:05:13.833Z,8.30
2023-01-08T11:06:13.822Z,8.29
2023-01-08T11:07:13.796Z,8.32
2023-01-08T11:08:13.763Z,8.33
2023-01-08T11:09:14.012Z,8.37
2023-01-08T11:10:13.741Z,8.44
2023-01-08T11:11:13.761Z,8.44
2023-01-08T11:12:13.822Z,8.42
2023-01-08T11:13:13.712Z,8.47
2023-01-08T11:14:13.733Z,8.48
2023-01-08T11:15:13.802Z,8.48
2023-01-08T11:16:13.707Z,8.45
2023-01-08T11:17:13.668Z,8.48
2023-01-08T11:18:13.658Z,8.44
2023-01-08T11:19:13.646Z,8.45
2023-01-08T11:20:13.638Z,8.47
2023-01-08T11:21:13.621Z,8.47
2023-01-08T11:22:13.585Z,8.48
2023-01-08T11:23:13.612Z,8.48
2023-01-08T11:24:13.564Z,8.53
2023-01-08T11:25:14.123Z,8.55
2023-01-08T11:26:13.523Z,8.58
2023-01-08T11:27:13.525Z,8.60
2023-01-08T11:28:13.504Z,8.63
2023-01-08T11:29:13.495Z,8.69
2023-01-08T11:30:13.501Z,8.73
2023-01-08T11:31:13.531Z,8.72
2023-01-08T11:32:13.455Z,8.75
2023-01-08T11:33:13.480Z,8.76
2023-01-08T11:34:13.434Z,8.75
2023-01-08T11:35:13.451Z,8.75
2023-01-08T11:36:14.899Z,8.76
2023-01-08T11:37:13.396Z,8.73
2023-01-08T11:38:13.390Z,8.72
2023-01-08T11:39:13.379Z,8.72
2023-01-08T11:40:13.393Z,8.73
2023-01-08T11:41:13.358Z,8.73
2023-01-08T11:42:13.341Z,8.73
2023-01-08T11:43:13.327Z,8.73
2023-01-08T11:44:13.496Z,8.73
2023-01-08T11:45:13.297Z,8.72
2023-01-08T11:46:13.284Z,8.73
2023-01-08T11:47:13.252Z,8.71
2023-01-08T11:48:14.629Z,8.66
2023-01-08T11:49:13.249Z,8.65
2023-01-08T11:50:13.261Z,8.66
2023-01-08T11:51:13.213Z,8.69
2023-01-08T11:52:13.197Z,8.69
2023-01-08T11:53:13.196Z,8.75
2023-01-08T11:54:14.387Z,8.72
2023-01-08T11:55:13.179Z,8.71
2023-01-08T11:56:13.207Z,8.69
2023-01-08T11:57:13.156Z,8.71
2023-01-08T11:58:13.126Z,8.69
2023-01-08T11:59:13.161Z,8.72
2023-01-08T12:00:14.428Z,8.72
2023-01-08T12:01:13.154Z,8.72
2023-01-08T12:02:13.113Z,8.73
2023-01-08T12:03:13.112Z,8.75
2023-01-08T12:04:13.051Z,8.75
2023-01-08T12:05:13.039Z,8.75
2023-01-08T12:06:13.004Z,8.78
2023-01-08T12:07:13.004Z,8.81
2023-01-08T12:08:12.975Z,8.86
2023-01-08T12:09:12.997Z,8.88
2023-01-08T12:10:12.957Z,8.93
2023-01-08T12:11:12.965Z,8.99
2023-01-08T12:12:14.999Z,9.05
2023-01-08T12:13:12.947Z,9.10
2023-01-08T12:14:12.931Z,9.10
2023-01-08T12:15:12.960Z,9.15
2023-01-08T12:16:12.890Z,9.15
2023-01-08T12:17:12.883Z,9.20
2023-01-08T12:18:12.860Z,9.21
2023-01-08T12:19:12.897Z,9.18
2023-01-08T12:20:12.836Z,9.20
2023-01-08T12:21:12.847Z,9.21
2023-01-08T12:22:12.819Z,9.24
2023-01-08T12:23:12.797Z,9.18
2023-01-08T12:24:12.778Z,9.20
2023-01-08T12:25:12.767Z,9.20
2023-01-08T12:26:12.795Z,9.18
2023-01-08T12:27:12.749Z,9.18
2023-01-08T12:28:12.745Z,9.20
2023-01-08T12:29:12.757Z,9.20
2023-01-08T12:30:12.701Z,9.24
2023-01-08T12:31:12.717Z,9.27
2023-01-08T12:32:12.736Z,9.28
2023-01-08T12:33:12.676Z,9.31
2023-01-08T12:34:12.671Z,9.32
2023-01-08T12:35:12.677Z,9.34
2023-01-08T12:36:12.626Z,9.38
2023-01-08T12:37:12.633Z,9.38
2023-01-08T12:38:12.607Z,9.40
2023-01-08T12:39:12.643Z,9.42
2023-01-08T12:40:12.586Z,9.40
2023-01-08T12:41:12.582Z,9.43
2023-01-08T12:42:12.538Z,9.48
2023-01-08T12:43:12.727Z,9.50
2023-01-08T12:44:12.529Z,9.53
2023-01-08T12:45:12.526Z,9.53
2023-01-08T12:46:12.569Z,9.50
2023-01-08T12:47:12.486Z,9.52
2023-01-08T12:48:12.461Z,9.53
2023-01-08T12:49:12.490Z,9.57
2023-01-08T12:50:12.427Z,9.57
2023-01-08T12:51:12.450Z,9.57
2023-01-08T12:52:12.448Z,9.58
2023-01-08T12:53:12.424Z,9.60
2023-01-08T12:54:12.389Z,9.61
2023-01-08T12:55:12.399Z,9.64
2023-01-08T12:56:12.358Z,9.64
2023-01-08T12:57:12.371Z,9.64
2023-01-08T12:58:12.338Z,9.64
2023-01-08T12:59:12.329Z,9.60
2023-01-08T13:00:12.305Z,9.60
2023-01-08T13:01:12.409Z,9.58
2023-01-08T13:02:12.372Z,9.57
2023-01-08T13:03:12.328Z,9.58
2023-01-08T13:04:12.253Z,9.57
2023-01-08T13:05:12.297Z,9.57
2023-01-08T13:06:12.222Z,9.58
2023-01-08T13:07:12.243Z,9.57
2023-01-08T13:08:12.201Z,9.56
2023-01-08T13:09:12.200Z,9.58
2023-01-08T13:10:12.179Z,9.57
2023-01-08T13:11:12.189Z,9.56
2023-01-08T13:12:12.150Z,9.57
2023-01-08T13:13:12.157Z,9.56
2023-01-08T13:14:12.146Z,9.56
2023-01-08T13:15:12.116Z,9.57
2023-01-08T13:16:12.179Z,9.58
2023-01-08T13:17:12.079Z,9.58
2023-01-08T13:18:12.097Z,9.60